sensor_id;sensor_type;location;lat;lon;timestamp;temperature;humidity
44111;DHT22;29774;52.664;5.074;2023-07-02T00:01:10;20.30;65.80
44111;DHT22;29774;52.664;5.074;2023-07-02T00:03:38;20.70;65.40
44111;DHT22;29774;52.664;5.074;2023-07-02T00:06:03;20.50;63.70
44111;DHT22;29774;52.664;5.074;2023-07-02T00:08:29;20.40;65.70
44111;DHT22;29774;52.664;5.074;2023-07-02T00:10:55;20.10;66.90
44111;DHT22;29774;52.664;5.074;2023-07-02T00:13:20;20.20;65.80
44111;DHT22;29774;52.664;5.074;2023-07-02T00:15:46;20.50;65.10
44111;DHT22;29774;52.664;5.074;2023-07-02T00:18:11;20.50;64.90
44111;DHT22;29774;52.664;5.074;2023-07-02T00:20:42;20.60;65.00
44111;DHT22;29774;52.664;5.074;2023-07-02T00:23:08;20.70;65.20
44111;DHT22;29774;52.664;5.074;2023-07-02T00:25:38;21.40;62.90
44111;DHT22;29774;52.664;5.074;2023-07-02T00:28:04;21.50;60.40
44111;DHT22;29774;52.664;5.074;2023-07-02T00:30:29;21.20;62.40
44111;DHT22;29774;52.664;5.074;2023-07-02T00:32:55;20.90;63.70
44111;DHT22;29774;52.664;5.074;2023-07-02T00:35:21;21.00;62.60
44111;DHT22;29774;52.664;5.074;2023-07-02T00:37:48;21.20;63.40
44111;DHT22;29774;52.664;5.074;2023-07-02T00:40:14;21.10;63.10
44111;DHT22;29774;52.664;5.074;2023-07-02T00:42:39;21.30;62.00
44111;DHT22;29774;52.664;5.074;2023-07-02T00:45:05;21.40;62.00
44111;DHT22;29774;52.664;5.074;2023-07-02T00:47:35;20.80;64.10
44111;DHT22;29774;52.664;5.074;2023-07-02T00:50:02;20.70;64.40
44111;DHT22;29774;52.664;5.074;2023-07-02T00:52:28;21.20;62.00
44111;DHT22;29774;52.664;5.074;2023-07-02T00:54:53;20.80;62.50
44111;DHT22;29774;52.664;5.074;2023-07-02T00:57:19;20.40;65.10
44111;DHT22;29774;52.664;5.074;2023-07-02T00:59:45;20.70;63.40
44111;DHT22;29774;52.664;5.074;2023-07-02T01:02:11;20.60;64.90
44111;DHT22;29774;52.664;5.074;2023-07-02T01:04:38;20.80;62.30
44111;DHT22;29774;52.664;5.074;2023-07-02T01:07:04;21.20;63.00
44111;DHT22;29774;52.664;5.074;2023-07-02T01:09:35;21.70;61.50
44111;DHT22;29774;52.664;5.074;2023-07-02T01:12:04;21.70;61.10
44111;DHT22;29774;52.664;5.074;2023-07-02T01:14:37;21.50;61.80
44111;DHT22;29774;52.664;5.074;2023-07-02T01:17:03;21.00;62.70
44111;DHT22;29774;52.664;5.074;2023-07-02T01:22:11;20.50;64.00
44111;DHT22;29774;52.664;5.074;2023-07-02T01:24:40;19.90;64.00
44111;DHT22;29774;52.664;5.074;2023-07-02T01:27:07;20.20;65.00
44111;DHT22;29774;52.664;5.074;2023-07-02T01:29:32;20.40;63.50
44111;DHT22;29774;52.664;5.074;2023-07-02T01:32:02;19.90;65.30
44111;DHT22;29774;52.664;5.074;2023-07-02T01:34:28;20.50;64.30
44111;DHT22;29774;52.664;5.074;2023-07-02T01:36:54;20.30;63.30
44111;DHT22;29774;52.664;5.074;2023-07-02T01:39:20;20.00;64.00
44111;DHT22;29774;52.664;5.074;2023-07-02T01:41:54;19.70;65.10
44111;DHT22;29774;52.664;5.074;2023-07-02T01:44:21;19.70;65.20
44111;DHT22;29774;52.664;5.074;2023-07-02T01:46:47;20.30;64.30
44111;DHT22;29774;52.664;5.074;2023-07-02T01:49:18;20.00;65.30
44111;DHT22;29774;52.664;5.074;2023-07-02T01:51:54;20.00;65.80
44111;DHT22;29774;52.664;5.074;2023-07-02T01:54:21;20.40;64.60
44111;DHT22;29774;52.664;5.074;2023-07-02T01:56:47;19.90;64.30
44111;DHT22;29774;52.664;5.074;2023-07-02T01:59:14;20.30;65.10
44111;DHT22;29774;52.664;5.074;2023-07-02T02:01:40;20.80;62.10
44111;DHT22;29774;52.664;5.074;2023-07-02T02:04:06;20.80;62.00
44111;DHT22;29774;52.664;5.074;2023-07-02T02:06:32;20.50;62.90
44111;DHT22;29774;52.664;5.074;2023-07-02T02:08:58;19.90;61.70
44111;DHT22;29774;52.664;5.074;2023-07-02T02:11:24;20.00;65.80
44111;DHT22;29774;52.664;5.074;2023-07-02T02:13:50;20.60;63.60
44111;DHT22;29774;52.664;5.074;2023-07-02T02:16:15;21.20;61.90
44111;DHT22;29774;52.664;5.074;2023-07-02T02:18:41;20.80;62.80
44111;DHT22;29774;52.664;5.074;2023-07-02T02:21:07;21.00;60.80
44111;DHT22;29774;52.664;5.074;2023-07-02T02:23:32;20.80;62.50
44111;DHT22;29774;52.664;5.074;2023-07-02T02:25:59;20.50;62.50
44111;DHT22;29774;52.664;5.074;2023-07-02T02:28:25;20.70;60.80
44111;DHT22;29774;52.664;5.074;2023-07-02T02:30:50;20.30;60.90
44111;DHT22;29774;52.664;5.074;2023-07-02T02:33:16;20.00;63.00
44111;DHT22;29774;52.664;5.074;2023-07-02T02:35:42;19.70;65.80
44111;DHT22;29774;52.664;5.074;2023-07-02T02:38:07;19.80;65.40
44111;DHT22;29774;52.664;5.074;2023-07-02T02:40:33;20.10;64.80
44111;DHT22;29774;52.664;5.074;2023-07-02T02:43:00;20.70;63.20
44111;DHT22;29774;52.664;5.074;2023-07-02T02:45:25;21.00;60.30
44111;DHT22;29774;52.664;5.074;2023-07-02T02:47:51;20.20;63.30
44111;DHT22;29774;52.664;5.074;2023-07-02T02:50:17;19.70;64.90
44111;DHT22;29774;52.664;5.074;2023-07-02T02:52:42;20.20;63.80
44111;DHT22;29774;52.664;5.074;2023-07-02T02:55:09;19.80;64.30
44111;DHT22;29774;52.664;5.074;2023-07-02T02:57:36;19.70;64.70
44111;DHT22;29774;52.664;5.074;2023-07-02T03:00:02;20.20;64.00
44111;DHT22;29774;52.664;5.074;2023-07-02T03:02:28;20.30;62.70
44111;DHT22;29774;52.664;5.074;2023-07-02T03:04:53;19.90;64.20
44111;DHT22;29774;52.664;5.074;2023-07-02T03:07:19;19.90;63.50
44111;DHT22;29774;52.664;5.074;2023-07-02T03:09:45;19.80;64.50
44111;DHT22;29774;52.664;5.074;2023-07-02T03:12:10;20.00;64.80
44111;DHT22;29774;52.664;5.074;2023-07-02T03:14:36;19.80;64.80
44111;DHT22;29774;52.664;5.074;2023-07-02T03:17:02;19.60;64.50
44111;DHT22;29774;52.664;5.074;2023-07-02T03:19:28;20.20;64.30
44111;DHT22;29774;52.664;5.074;2023-07-02T03:21:54;20.20;62.90
44111;DHT22;29774;52.664;5.074;2023-07-02T03:24:20;19.90;63.80
44111;DHT22;29774;52.664;5.074;2023-07-02T03:26:45;19.90;62.80
44111;DHT22;29774;52.664;5.074;2023-07-02T03:29:11;20.10;63.10
44111;DHT22;29774;52.664;5.074;2023-07-02T03:31:37;19.60;65.00
44111;DHT22;29774;52.664;5.074;2023-07-02T03:34:09;19.70;64.40
44111;DHT22;29774;52.664;5.074;2023-07-02T03:36:35;19.70;64.20
44111;DHT22;29774;52.664;5.074;2023-07-02T03:39:02;19.20;65.90
44111;DHT22;29774;52.664;5.074;2023-07-02T03:41:28;19.40;65.10
44111;DHT22;29774;52.664;5.074;2023-07-02T03:43:53;19.70;64.30
44111;DHT22;29774;52.664;5.074;2023-07-02T03:46:19;19.50;65.00
44111;DHT22;29774;52.664;5.074;2023-07-02T03:48:45;18.80;66.10
44111;DHT22;29774;52.664;5.074;2023-07-02T03:51:11;19.20;66.50
44111;DHT22;29774;52.664;5.074;2023-07-02T03:53:41;19.50;64.80
44111;DHT22;29774;52.664;5.074;2023-07-02T03:56:07;18.70;65.90
44111;DHT22;29774;52.664;5.074;2023-07-02T03:58:33;18.40;66.90
44111;DHT22;29774;52.664;5.074;2023-07-02T04:00:59;18.40;68.30
44111;DHT22;29774;52.664;5.074;2023-07-02T04:03:25;18.80;66.10
44111;DHT22;29774;52.664;5.074;2023-07-02T04:05:50;18.50;67.70
44111;DHT22;29774;52.664;5.074;2023-07-02T04:08:16;18.60;67.30
44111;DHT22;29774;52.664;5.074;2023-07-02T04:10:42;19.10;65.00
44111;DHT22;29774;52.664;5.074;2023-07-02T04:13:07;19.40;65.90
44111;DHT22;29774;52.664;5.074;2023-07-02T04:15:33;18.90;64.30
44111;DHT22;29774;52.664;5.074;2023-07-02T04:17:59;18.70;67.50
44111;DHT22;29774;52.664;5.074;2023-07-02T04:20:25;19.30;66.10
44111;DHT22;29774;52.664;5.074;2023-07-02T04:22:51;19.40;65.60
44111;DHT22;29774;52.664;5.074;2023-07-02T04:25:17;19.40;65.40
44111;DHT22;29774;52.664;5.074;2023-07-02T04:27:43;19.90;63.90
44111;DHT22;29774;52.664;5.074;2023-07-02T04:30:10;20.20;63.70
44111;DHT22;29774;52.664;5.074;2023-07-02T04:32:36;20.40;62.80
44111;DHT22;29774;52.664;5.074;2023-07-02T04:35:05;20.30;62.60
44111;DHT22;29774;52.664;5.074;2023-07-02T04:37:30;19.80;62.70
44111;DHT22;29774;52.664;5.074;2023-07-02T04:39:56;19.80;64.30
44111;DHT22;29774;52.664;5.074;2023-07-02T04:42:22;20.30;63.00
44111;DHT22;29774;52.664;5.074;2023-07-02T04:44:53;20.50;62.10
44111;DHT22;29774;52.664;5.074;2023-07-02T04:47:19;20.60;62.10
44111;DHT22;29774;52.664;5.074;2023-07-02T04:49:45;20.60;62.00
44111;DHT22;29774;52.664;5.074;2023-07-02T04:52:11;21.00;61.30
44111;DHT22;29774;52.664;5.074;2023-07-02T04:54:36;21.10;60.70
44111;DHT22;29774;52.664;5.074;2023-07-02T04:57:02;21.10;59.20
44111;DHT22;29774;52.664;5.074;2023-07-02T04:59:28;20.90;60.70
44111;DHT22;29774;52.664;5.074;2023-07-02T05:01:53;20.90;60.80
44111;DHT22;29774;52.664;5.074;2023-07-02T05:04:19;21.00;61.10
44111;DHT22;29774;52.664;5.074;2023-07-02T05:06:44;21.30;60.30
44111;DHT22;29774;52.664;5.074;2023-07-02T05:09:10;21.30;60.00
44111;DHT22;29774;52.664;5.074;2023-07-02T05:11:36;21.20;60.20
44111;DHT22;29774;52.664;5.074;2023-07-02T05:14:01;21.50;59.60
44111;DHT22;29774;52.664;5.074;2023-07-02T05:16:27;21.50;59.60
44111;DHT22;29774;52.664;5.074;2023-07-02T05:18:53;21.40;59.50
44111;DHT22;29774;52.664;5.074;2023-07-02T05:21:19;21.20;60.20
44111;DHT22;29774;52.664;5.074;2023-07-02T05:23:44;21.40;58.90
44111;DHT22;29774;52.664;5.074;2023-07-02T05:26:10;21.30;59.60
44111;DHT22;29774;52.664;5.074;2023-07-02T05:28:36;21.60;59.20
44111;DHT22;29774;52.664;5.074;2023-07-02T05:31:02;21.60;59.70
44111;DHT22;29774;52.664;5.074;2023-07-02T05:33:27;21.50;59.40
44111;DHT22;29774;52.664;5.074;2023-07-02T05:35:53;21.60;58.80
44111;DHT22;29774;52.664;5.074;2023-07-02T05:38:19;21.50;58.50
44111;DHT22;29774;52.664;5.074;2023-07-02T05:40:45;21.50;59.30
44111;DHT22;29774;52.664;5.074;2023-07-02T05:43:11;21.60;59.20
44111;DHT22;29774;52.664;5.074;2023-07-02T05:45:37;21.80;59.10
44111;DHT22;29774;52.664;5.074;2023-07-02T05:48:03;21.70;58.80
44111;DHT22;29774;52.664;5.074;2023-07-02T05:50:28;21.60;59.00
44111;DHT22;29774;52.664;5.074;2023-07-02T05:52:54;21.60;59.10
44111;DHT22;29774;52.664;5.074;2023-07-02T05:55:20;21.70;59.00
44111;DHT22;29774;52.664;5.074;2023-07-02T05:57:46;21.70;59.30
44111;DHT22;29774;52.664;5.074;2023-07-02T06:00:12;21.70;59.60
44111;DHT22;29774;52.664;5.074;2023-07-02T06:02:38;21.60;59.20
44111;DHT22;29774;52.664;5.074;2023-07-02T06:05:04;21.70;59.50
44111;DHT22;29774;52.664;5.074;2023-07-02T06:07:30;21.60;59.40
44111;DHT22;29774;52.664;5.074;2023-07-02T06:09:55;21.60;59.10
44111;DHT22;29774;52.664;5.074;2023-07-02T06:12:21;21.70;59.00
44111;DHT22;29774;52.664;5.074;2023-07-02T06:14:47;21.70;58.80
44111;DHT22;29774;52.664;5.074;2023-07-02T06:17:13;21.70;59.00
44111;DHT22;29774;52.664;5.074;2023-07-02T06:19:39;21.70;59.70
44111;DHT22;29774;52.664;5.074;2023-07-02T06:22:05;21.70;59.20
44111;DHT22;29774;52.664;5.074;2023-07-02T06:24:31;21.70;59.90
44111;DHT22;29774;52.664;5.074;2023-07-02T06:26:56;21.70;59.00
44111;DHT22;29774;52.664;5.074;2023-07-02T06:29:23;21.70;58.40
44111;DHT22;29774;52.664;5.074;2023-07-02T06:31:52;21.70;59.80
44111;DHT22;29774;52.664;5.074;2023-07-02T06:34:17;21.90;59.40
44111;DHT22;29774;52.664;5.074;2023-07-02T06:36:43;21.90;58.60
44111;DHT22;29774;52.664;5.074;2023-07-02T06:39:09;21.90;59.60
44111;DHT22;29774;52.664;5.074;2023-07-02T06:41:35;21.90;59.20
44111;DHT22;29774;52.664;5.074;2023-07-02T06:44:01;21.80;58.90
44111;DHT22;29774;52.664;5.074;2023-07-02T06:46:28;21.90;58.90
44111;DHT22;29774;52.664;5.074;2023-07-02T06:48:54;21.80;59.60
44111;DHT22;29774;52.664;5.074;2023-07-02T06:51:20;21.90;57.20
44111;DHT22;29774;52.664;5.074;2023-07-02T06:53:46;21.80;59.50
44111;DHT22;29774;52.664;5.074;2023-07-02T06:56:12;21.80;59.90
44111;DHT22;29774;52.664;5.074;2023-07-02T06:58:47;21.80;59.10
44111;DHT22;29774;52.664;5.074;2023-07-02T07:01:12;21.90;58.80
44111;DHT22;29774;52.664;5.074;2023-07-02T07:03:38;22.00;58.10
44111;DHT22;29774;52.664;5.074;2023-07-02T07:06:04;21.90;58.20
44111;DHT22;29774;52.664;5.074;2023-07-02T07:08:29;21.90;58.20
44111;DHT22;29774;52.664;5.074;2023-07-02T07:10:55;22.00;58.40
44111;DHT22;29774;52.664;5.074;2023-07-02T07:13:21;22.00;58.30
44111;DHT22;29774;52.664;5.074;2023-07-02T07:15:46;22.00;58.40
44111;DHT22;29774;52.664;5.074;2023-07-02T07:18:12;22.00;58.00
44111;DHT22;29774;52.664;5.074;2023-07-02T07:20:39;21.90;59.50
44111;DHT22;29774;52.664;5.074;2023-07-02T07:23:08;21.70;57.90
44111;DHT22;29774;52.664;5.074;2023-07-02T07:25:34;21.70;59.20
44111;DHT22;29774;52.664;5.074;2023-07-02T07:28:00;21.90;59.10
44111;DHT22;29774;52.664;5.074;2023-07-02T07:30:25;21.90;58.50
44111;DHT22;29774;52.664;5.074;2023-07-02T07:32:52;21.90;60.10
44111;DHT22;29774;52.664;5.074;2023-07-02T07:35:18;21.80;59.50
44111;DHT22;29774;52.664;5.074;2023-07-02T07:37:44;21.80;60.50
44111;DHT22;29774;52.664;5.074;2023-07-02T07:40:11;21.90;59.80
44111;DHT22;29774;52.664;5.074;2023-07-02T07:42:36;22.00;59.90
44111;DHT22;29774;52.664;5.074;2023-07-02T07:45:05;22.00;59.90
44111;DHT22;29774;52.664;5.074;2023-07-02T07:47:31;22.20;60.10
44111;DHT22;29774;52.664;5.074;2023-07-02T07:49:57;22.10;59.80
44111;DHT22;29774;52.664;5.074;2023-07-02T07:52:22;22.10;60.00
44111;DHT22;29774;52.664;5.074;2023-07-02T07:54:48;22.10;60.20
44111;DHT22;29774;52.664;5.074;2023-07-02T07:57:14;22.10;60.00
44111;DHT22;29774;52.664;5.074;2023-07-02T07:59:40;22.10;59.70
44111;DHT22;29774;52.664;5.074;2023-07-02T08:02:06;22.20;59.90
44111;DHT22;29774;52.664;5.074;2023-07-02T08:04:32;22.10;60.20
44111;DHT22;29774;52.664;5.074;2023-07-02T08:06:57;22.00;60.80
44111;DHT22;29774;52.664;5.074;2023-07-02T08:09:24;22.00;60.50
44111;DHT22;29774;52.664;5.074;2023-07-02T08:11:50;22.10;60.20
44111;DHT22;29774;52.664;5.074;2023-07-02T08:14:16;22.20;60.10
44111;DHT22;29774;52.664;5.074;2023-07-02T08:16:43;22.20;59.90
44111;DHT22;29774;52.664;5.074;2023-07-02T08:19:10;22.20;59.00
44111;DHT22;29774;52.664;5.074;2023-07-02T08:21:35;22.20;59.70
44111;DHT22;29774;52.664;5.074;2023-07-02T08:24:01;22.20;58.90
44111;DHT22;29774;52.664;5.074;2023-07-02T08:26:27;22.20;59.80
44111;DHT22;29774;52.664;5.074;2023-07-02T08:28:52;22.20;59.90
44111;DHT22;29774;52.664;5.074;2023-07-02T08:31:18;22.00;59.90
44111;DHT22;29774;52.664;5.074;2023-07-02T08:33:43;22.10;59.90
44111;DHT22;29774;52.664;5.074;2023-07-02T08:36:09;22.20;59.90
44111;DHT22;29774;52.664;5.074;2023-07-02T08:38:35;22.20;59.50
44111;DHT22;29774;52.664;5.074;2023-07-02T08:41:00;22.30;60.40
44111;DHT22;29774;52.664;5.074;2023-07-02T08:43:26;22.40;59.80
44111;DHT22;29774;52.664;5.074;2023-07-02T08:45:55;22.50;59.90
44111;DHT22;29774;52.664;5.074;2023-07-02T08:48:20;22.40;60.70
44111;DHT22;29774;52.664;5.074;2023-07-02T08:50:49;22.30;60.70
44111;DHT22;29774;52.664;5.074;2023-07-02T08:53:15;22.30;60.80
44111;DHT22;29774;52.664;5.074;2023-07-02T08:55:41;22.40;60.40
44111;DHT22;29774;52.664;5.074;2023-07-02T08:58:07;22.40;60.30
44111;DHT22;29774;52.664;5.074;2023-07-02T09:00:32;22.40;60.20
44111;DHT22;29774;52.664;5.074;2023-07-02T09:03:14;22.40;60.50
44111;DHT22;29774;52.664;5.074;2023-07-02T09:05:51;22.40;60.20
44111;DHT22;29774;52.664;5.074;2023-07-02T09:08:24;22.40;59.40
44111;DHT22;29774;52.664;5.074;2023-07-02T09:10:50;22.50;60.30
44111;DHT22;29774;52.664;5.074;2023-07-02T09:13:16;22.40;61.10
44111;DHT22;29774;52.664;5.074;2023-07-02T09:15:42;22.30;59.30
44111;DHT22;29774;52.664;5.074;2023-07-02T09:18:21;22.30;60.70
44111;DHT22;29774;52.664;5.074;2023-07-02T09:20:50;22.20;60.20
44111;DHT22;29774;52.664;5.074;2023-07-02T09:23:16;22.30;60.10
44111;DHT22;29774;52.664;5.074;2023-07-02T09:25:42;22.30;60.20
44111;DHT22;29774;52.664;5.074;2023-07-02T09:30:55;22.50;59.50
44111;DHT22;29774;52.664;5.074;2023-07-02T09:33:32;22.50;59.90
44111;DHT22;29774;52.664;5.074;2023-07-02T09:35:58;22.40;59.80
44111;DHT22;29774;52.664;5.074;2023-07-02T09:38:24;22.40;59.80
44111;DHT22;29774;52.664;5.074;2023-07-02T09:40:52;22.30;60.20
44111;DHT22;29774;52.664;5.074;2023-07-02T09:43:18;22.30;61.30
44111;DHT22;29774;52.664;5.074;2023-07-02T09:45:46;22.30;60.40
44111;DHT22;29774;52.664;5.074;2023-07-02T09:48:14;22.30;60.90
44111;DHT22;29774;52.664;5.074;2023-07-02T09:50:47;22.30;60.50
44111;DHT22;29774;52.664;5.074;2023-07-02T09:53:13;22.30;60.50
44111;DHT22;29774;52.664;5.074;2023-07-02T09:55:39;22.30;59.30
44111;DHT22;29774;52.664;5.074;2023-07-02T09:58:05;22.30;60.40
44111;DHT22;29774;52.664;5.074;2023-07-02T10:00:31;22.30;60.70
44111;DHT22;29774;52.664;5.074;2023-07-02T10:02:57;22.30;60.20
44111;DHT22;29774;52.664;5.074;2023-07-02T10:05:29;22.40;59.90
44111;DHT22;29774;52.664;5.074;2023-07-02T10:08:11;22.40;60.20
44111;DHT22;29774;52.664;5.074;2023-07-02T10:10:37;22.50;60.30
44111;DHT22;29774;52.664;5.074;2023-07-02T10:13:03;22.50;59.60
44111;DHT22;29774;52.664;5.074;2023-07-02T10:15:29;22.40;60.20
44111;DHT22;29774;52.664;5.074;2023-07-02T10:18:01;22.50;60.50
44111;DHT22;29774;52.664;5.074;2023-07-02T10:20:40;22.50;60.20
44111;DHT22;29774;52.664;5.074;2023-07-02T10:23:18;22.50;59.20
44111;DHT22;29774;52.664;5.074;2023-07-02T10:25:45;22.40;59.30
44111;DHT22;29774;52.664;5.074;2023-07-02T10:28:19;22.40;59.40
44111;DHT22;29774;52.664;5.074;2023-07-02T10:30:46;22.40;60.50
44111;DHT22;29774;52.664;5.074;2023-07-02T10:33:16;22.40;60.80
44111;DHT22;29774;52.664;5.074;2023-07-02T10:35:43;22.40;60.60
44111;DHT22;29774;52.664;5.074;2023-07-02T10:38:21;22.40;60.70
44111;DHT22;29774;52.664;5.074;2023-07-02T10:40:54;22.40;60.30
44111;DHT22;29774;52.664;5.074;2023-07-02T10:43:30;22.40;60.50
44111;DHT22;29774;52.664;5.074;2023-07-02T10:45:58;22.50;59.70
44111;DHT22;29774;52.664;5.074;2023-07-02T10:48:25;22.50;58.40
44111;DHT22;29774;52.664;5.074;2023-07-02T10:50:51;22.50;60.30
44111;DHT22;29774;52.664;5.074;2023-07-02T10:53:17;22.60;58.70
44111;DHT22;29774;52.664;5.074;2023-07-02T10:55:44;22.60;60.10
44111;DHT22;29774;52.664;5.074;2023-07-02T10:58:11;22.50;60.10
44111;DHT22;29774;52.664;5.074;2023-07-02T11:00:51;22.60;59.60
44111;DHT22;29774;52.664;5.074;2023-07-02T11:03:21;22.60;58.10
44111;DHT22;29774;52.664;5.074;2023-07-02T11:05:48;22.50;57.70
44111;DHT22;29774;52.664;5.074;2023-07-02T11:08:14;22.60;59.00
44111;DHT22;29774;52.664;5.074;2023-07-02T11:10:40;22.70;58.90
44111;DHT22;29774;52.664;5.074;2023-07-02T11:15:38;22.70;59.10
44111;DHT22;29774;52.664;5.074;2023-07-02T11:18:12;22.70;59.10
44111;DHT22;29774;52.664;5.074;2023-07-02T11:24:16;22.60;58.80
44111;DHT22;29774;52.664;5.074;2023-07-02T11:27:07;22.60;59.90
44111;DHT22;29774;52.664;5.074;2023-07-02T11:29:34;22.60;59.80
44111;DHT22;29774;52.664;5.074;2023-07-02T11:32:08;22.70;58.40
44111;DHT22;29774;52.664;5.074;2023-07-02T11:34:35;22.80;58.80
44111;DHT22;29774;52.664;5.074;2023-07-02T11:37:01;22.70;59.00
44111;DHT22;29774;52.664;5.074;2023-07-02T11:39:27;22.70;59.50
44111;DHT22;29774;52.664;5.074;2023-07-02T11:41:53;22.60;60.00
44111;DHT22;29774;52.664;5.074;2023-07-02T11:44:18;22.70;58.50
44111;DHT22;29774;52.664;5.074;2023-07-02T11:46:45;22.70;59.10
44111;DHT22;29774;52.664;5.074;2023-07-02T11:49:12;22.70;58.80
44111;DHT22;29774;52.664;5.074;2023-07-02T11:51:38;22.70;59.00
44111;DHT22;29774;52.664;5.074;2023-07-02T11:54:04;22.70;59.90
44111;DHT22;29774;52.664;5.074;2023-07-02T11:56:30;22.70;59.30
44111;DHT22;29774;52.664;5.074;2023-07-02T11:58:56;22.70;59.30
44111;DHT22;29774;52.664;5.074;2023-07-02T12:01:22;22.70;59.10
44111;DHT22;29774;52.664;5.074;2023-07-02T12:03:47;22.70;59.70
44111;DHT22;29774;52.664;5.074;2023-07-02T12:06:13;22.60;60.30
44111;DHT22;29774;52.664;5.074;2023-07-02T12:08:39;22.70;56.90
44111;DHT22;29774;52.664;5.074;2023-07-02T12:11:04;22.70;59.00
44111;DHT22;29774;52.664;5.074;2023-07-02T12:13:30;22.70;59.20
44111;DHT22;29774;52.664;5.074;2023-07-02T12:15:56;22.70;58.60
44111;DHT22;29774;52.664;5.074;2023-07-02T12:18:22;22.80;58.70
44111;DHT22;29774;52.664;5.074;2023-07-02T12:20:47;22.90;58.40
44111;DHT22;29774;52.664;5.074;2023-07-02T12:23:13;22.90;58.80
44111;DHT22;29774;52.664;5.074;2023-07-02T12:25:39;22.80;58.60
44111;DHT22;29774;52.664;5.074;2023-07-02T12:28:05;22.90;58.50
44111;DHT22;29774;52.664;5.074;2023-07-02T12:30:31;22.90;59.20
44111;DHT22;29774;52.664;5.074;2023-07-02T12:32:57;22.90;58.50
44111;DHT22;29774;52.664;5.074;2023-07-02T12:35:23;22.90;58.70
44111;DHT22;29774;52.664;5.074;2023-07-02T12:37:50;22.90;58.70
44111;DHT22;29774;52.664;5.074;2023-07-02T12:40:17;22.90;58.40
44111;DHT22;29774;52.664;5.074;2023-07-02T12:42:43;22.90;58.70
44111;DHT22;29774;52.664;5.074;2023-07-02T12:45:10;22.80;59.00
44111;DHT22;29774;52.664;5.074;2023-07-02T12:47:37;22.90;58.50
44111;DHT22;29774;52.664;5.074;2023-07-02T12:50:04;22.90;58.10
44111;DHT22;29774;52.664;5.074;2023-07-02T12:52:30;23.00;58.40
44111;DHT22;29774;52.664;5.074;2023-07-02T12:54:55;23.00;58.70
44111;DHT22;29774;52.664;5.074;2023-07-02T12:57:21;23.00;58.50
44111;DHT22;29774;52.664;5.074;2023-07-02T12:59:47;23.00;58.40
44111;DHT22;29774;52.664;5.074;2023-07-02T13:02:12;23.00;58.80
44111;DHT22;29774;52.664;5.074;2023-07-02T13:04:38;23.00;58.10
44111;DHT22;29774;52.664;5.074;2023-07-02T13:07:04;23.10;56.80
44111;DHT22;29774;52.664;5.074;2023-07-02T13:09:30;23.00;57.60
44111;DHT22;29774;52.664;5.074;2023-07-02T13:11:55;23.00;58.20
44111;DHT22;29774;52.664;5.074;2023-07-02T13:14:21;23.00;57.30
44111;DHT22;29774;52.664;5.074;2023-07-02T13:16:47;23.00;58.10
44111;DHT22;29774;52.664;5.074;2023-07-02T13:19:13;23.10;58.30
44111;DHT22;29774;52.664;5.074;2023-07-02T13:21:38;23.10;58.10
44111;DHT22;29774;52.664;5.074;2023-07-02T13:24:04;23.20;57.90
44111;DHT22;29774;52.664;5.074;2023-07-02T13:26:30;23.20;57.40
44111;DHT22;29774;52.664;5.074;2023-07-02T13:28:56;23.20;57.20
44111;DHT22;29774;52.664;5.074;2023-07-02T13:31:21;23.20;58.00
44111;DHT22;29774;52.664;5.074;2023-07-02T13:33:47;23.20;58.10
44111;DHT22;29774;52.664;5.074;2023-07-02T13:36:13;23.10;58.10
44111;DHT22;29774;52.664;5.074;2023-07-02T13:38:39;23.20;55.80
44111;DHT22;29774;52.664;5.074;2023-07-02T13:41:05;23.20;56.60
44111;DHT22;29774;52.664;5.074;2023-07-02T13:43:30;23.20;57.90
44111;DHT22;29774;52.664;5.074;2023-07-02T13:45:56;23.20;58.00
44111;DHT22;29774;52.664;5.074;2023-07-02T13:48:22;23.20;57.60
44111;DHT22;29774;52.664;5.074;2023-07-02T13:50:48;23.30;57.60
44111;DHT22;29774;52.664;5.074;2023-07-02T13:53:13;23.20;57.30
44111;DHT22;29774;52.664;5.074;2023-07-02T13:55:39;23.20;57.50
44111;DHT22;29774;52.664;5.074;2023-07-02T13:58:05;23.30;57.10
44111;DHT22;29774;52.664;5.074;2023-07-02T14:00:30;23.30;57.40
44111;DHT22;29774;52.664;5.074;2023-07-02T14:02:56;23.20;57.10
44111;DHT22;29774;52.664;5.074;2023-07-02T14:05:21;23.30;57.40
44111;DHT22;29774;52.664;5.074;2023-07-02T14:07:47;23.20;57.60
44111;DHT22;29774;52.664;5.074;2023-07-02T14:10:14;23.20;57.40
44111;DHT22;29774;52.664;5.074;2023-07-02T14:12:40;23.20;57.40
44111;DHT22;29774;52.664;5.074;2023-07-02T14:15:07;23.20;57.20
44111;DHT22;29774;52.664;5.074;2023-07-02T14:17:32;23.20;57.00
44111;DHT22;29774;52.664;5.074;2023-07-02T14:19:58;23.20;57.20
44111;DHT22;29774;52.664;5.074;2023-07-02T14:22:24;23.20;56.70
44111;DHT22;29774;52.664;5.074;2023-07-02T14:24:49;23.30;56.40
44111;DHT22;29774;52.664;5.074;2023-07-02T14:27:15;23.30;56.80
44111;DHT22;29774;52.664;5.074;2023-07-02T14:29:41;23.30;56.50
44111;DHT22;29774;52.664;5.074;2023-07-02T14:32:07;23.30;55.50
44111;DHT22;29774;52.664;5.074;2023-07-02T14:34:33;23.20;56.90
44111;DHT22;29774;52.664;5.074;2023-07-02T14:36:59;23.30;57.00
44111;DHT22;29774;52.664;5.074;2023-07-02T14:39:25;23.30;56.70
44111;DHT22;29774;52.664;5.074;2023-07-02T14:41:51;23.20;56.90
44111;DHT22;29774;52.664;5.074;2023-07-02T14:44:17;23.30;57.20
44111;DHT22;29774;52.664;5.074;2023-07-02T14:46:43;23.30;57.40
44111;DHT22;29774;52.664;5.074;2023-07-02T14:49:09;23.30;57.10
44111;DHT22;29774;52.664;5.074;2023-07-02T14:51:34;23.30;56.80
44111;DHT22;29774;52.664;5.074;2023-07-02T14:54:01;23.30;56.30
44111;DHT22;29774;52.664;5.074;2023-07-02T14:56:31;23.40;56.90
44111;DHT22;29774;52.664;5.074;2023-07-02T14:58:57;23.40;57.40
44111;DHT22;29774;52.664;5.074;2023-07-02T15:01:22;23.40;57.00
44111;DHT22;29774;52.664;5.074;2023-07-02T15:03:48;23.30;57.20
44111;DHT22;29774;52.664;5.074;2023-07-02T15:06:16;23.40;57.00
44111;DHT22;29774;52.664;5.074;2023-07-02T15:08:42;23.40;56.90
44111;DHT22;29774;52.664;5.074;2023-07-02T15:11:10;23.30;57.10
44111;DHT22;29774;52.664;5.074;2023-07-02T15:13:36;23.30;57.10
44111;DHT22;29774;52.664;5.074;2023-07-02T15:16:03;23.40;57.30
44111;DHT22;29774;52.664;5.074;2023-07-02T15:18:29;23.30;57.30
44111;DHT22;29774;52.664;5.074;2023-07-02T15:20:55;23.30;55.40
44111;DHT22;29774;52.664;5.074;2023-07-02T15:23:22;23.30;57.40
44111;DHT22;29774;52.664;5.074;2023-07-02T15:28:18;23.40;56.80
44111;DHT22;29774;52.664;5.074;2023-07-02T15:30:43;23.40;57.00
44111;DHT22;29774;52.664;5.074;2023-07-02T15:33:09;23.40;56.70
44111;DHT22;29774;52.664;5.074;2023-07-02T15:35:34;23.40;56.60
44111;DHT22;29774;52.664;5.074;2023-07-02T15:38:00;23.30;56.80
44111;DHT22;29774;52.664;5.074;2023-07-02T15:40:26;23.30;57.40